North Manchester, IN (46962)

11:57 AM EDT on August 21, 2014 (GMT -0400)
APRSWXNET North Manchester IN US | Change Station
CLOSE
Current Station
Personal Weather Station
Location: North Manchester, IN
Elevation: 771 ft
Nearby Weather Stations

Elev 771 ft 41.01 °N, 85.76 °W | Updated 208 days ago

Thunderstorm
Thunderstorm
82 °F
Feels Like 86 °F
N
10
Wind Variable Wind from SW
Gusts 11 mph

Today
High -- | Low -- °F
--% Chance of Precip.
Yesterday
High -- | Low -- °F
Precip. -- in
6:58 AM 8:32 PM
Waning Crescent, 13% visible
Pressure 30.01 in
Visibility 5.0 miles
Clouds Mostly Cloudy 600 ft
Overcast 1200 ft
Heat Index 86 °F
Dew Point 70 °F
Humidity 65%
Rainfall -999.00 in
Snow Depth Not available.
UV 2 out of 12
Pollen 6.30 out of 12
Air Quality Not available.
Flu Activity Not available.
METAR KASW 211535Z AUTO 00000KT 5SM -RA BKN006 OVC012 22/21 A3001 RMK AO2

More Conditions Fewer Conditions

Pressure 30.01 in
Visibility 5.0 miles
Clouds Mostly Cloudy 600 ft
Overcast 1200 ft
Heat Index 86 °F
Dew Point 70 °F
Humidity 65%
Rainfall -999.00 in
Snow Depth Not available.
UV 2 out of 12
Pollen 6.30 out of 12
Air Quality Not available.
Flu Activity Not available.
METAR KASW 211535Z AUTO 00000KT 5SM -RA BKN006 OVC012 22/21 A3001 RMK AO2

More Conditions Fewer Conditions

10-Day Weather Forecast

Almanac

Astronomy

Aug. 21, 2014 Rise Set
Actual Time 6:58 AM EDT 8:32 PM EDT
Civil Twilight 6:29 AM EDT 9:01 PM EDT
Nautical Twilight 5:54 AM EDT 9:36 PM EDT
Astronomical Twilight 5:17 AM EDT 10:13 PM EDT
Moon 3:27 AM EDT 6:01 PM EDT
Length of Visible Light 14h 31m
Length of Day
13h 33m
Tomorrow will be 2m 30s shorter.
Waning Crescent, 13% of the Moon is Illuminated
Today
Waning Crescent
Aug 25
New
Sep 2
First Quarter
Sep 8
Full
Sep 15
Last Quarter

Community

WunderPhotos

Upload Photos

1,745,949 photos uploaded!

Nearby

Snow Depth

Station Depth Elevation
No new snow has been reported.

Earthquake Activity

City Distance Mag. Time & Date
No recent earthquake activity has been reported nearby.
Minimum magnitude displayed is 2.5.

Coastal Water Temperatures

Place Temperature
No Stations Reporting

Nearby Weather Stations